Time;durP1;ratioP1;P1;durP2;ratioP2;P2;SDS_P1;SDS_P2;PMS_P1;PMS_P2;Temp;Humidity;BMP_temperature;BMP_pressure;BME280_temperature;BME280_humidity;BME280_pressure;Samples;Min_cycle;Max_cycle;Signal;HPM_P1;HPM_P2
2022/08/08 00:02:16;;;;;;;;;;;;;;;23.03;60.46;99972.69;4439970;32;19977;-85
2022/08/08 00:04:44;;;;;;;;;;;;;;;22.89;60.45;99977.28;4439991;32;20009;-85
2022/08/08 00:07:10;;;;;;;;;;;;;;;22.79;60.44;99975.47;4454296;32;19977;-86
2022/08/08 00:09:47;;;;;;;;;;;;;;;22.61;60.43;99973.28;4438163;32;20049;-85
2022/08/08 00:12:13;;;;;;;;;;;;;;;22.57;60.43;99979.78;4432204;32;19982;-86
2022/08/08 00:14:41;;;;;;;;;;;;;;;22.67;60.44;99969.28;4437027;32;19986;-85
2022/08/08 00:17:14;;;;;;;;;;;;;;;22.35;60.42;99977.97;4440031;32;20004;-85
2022/08/08 00:19:41;;;;;;;;;;;;;;;22.07;60.40;99972.25;4427115;32;19977;-85
2022/08/08 00:22:16;;;;;;;;;;;;;;;22.13;60.40;99967.31;4428412;32;20132;-85
2022/08/08 00:24:41;;;;;;;;;;;;;;;22.08;60.40;99961.53;4455374;32;20013;-85
2022/08/08 00:27:07;;;;;;;;;;;;;;;21.97;60.40;99953.50;4441493;32;20067;-84
2022/08/08 00:29:51;;;;;;;;;;;;;;;22.21;60.41;99948.16;4442206;32;19988;-85
2022/08/08 00:32:16;;;;;;;;;;;;;;;22.25;60.41;99945.19;4442146;32;20340;-85
2022/08/08 00:37:38;;;;;;;;;;;;;;;22.38;60.42;99939.75;4456066;32;20386;-85
2022/08/08 00:40:12;;;;;;;;;;;;;;;22.42;60.43;99938.53;4455536;32;20325;-85
2022/08/08 00:42:56;;;;;;;;;;;;;;;22.35;60.42;99943.47;4455883;32;20029;-85
2022/08/08 00:45:21;;;;;;;;;;;;;;;22.28;60.42;99947.59;4441101;32;20008;-85
2022/08/08 00:47:49;;;;;;;;;;;;;;;22.29;60.42;99945.78;4455403;32;19981;-85
2022/08/08 00:50:22;;;;;;;;;;;;;;;22.43;60.42;99947.34;4455046;32;20372;-85
2022/08/08 00:53:06;;;;;;;;;;;;;;;22.43;60.42;99936.72;4440897;32;19985;-86
2022/08/08 00:55:48;;;;;;;;;;;;;;;22.31;60.42;99944.69;4453976;32;20053;-86
2022/08/08 00:58:32;;;;;;;;;;;;;;;22.17;60.41;99944.91;4441076;32;19988;-86
2022/08/08 01:01:03;;;;;;;;;;;;;;;22.42;60.42;99943.00;4455042;32;19991;-86
2022/08/08 01:03:47;;;;;;;;;;;;;;;22.27;60.41;99937.94;4440801;32;20736;-86
2022/08/08 01:06:18;;;;;;;;;;;;;;;22.36;60.42;99928.41;4440847;32;19993;-86
2022/08/08 01:09:06;;;;;;;;;;;;;;;22.23;60.40;99931.16;4454911;32;19995;-86
2022/08/08 01:11:31;;;;;;;;;;;;;;;22.14;60.40;99937.19;4427824;32;20361;-85
2022/08/08 01:13:57;;;;;;;;;;;;;;;22.16;60.41;99935.25;4454810;32;19965;-85
2022/08/08 01:16:34;;;;;;;;;;;;;;;22.17;60.42;99946.72;4440571;32;19989;-86
2022/08/08 01:19:13;;;;;;;;;;;;;;;22.63;60.43;99938.66;4454754;32;19982;-86
2022/08/08 01:22:05;;;;;;;;;;;;;;;22.31;60.41;99930.59;4440610;32;19996;-85
2022/08/08 01:24:30;;;;;;;;;;;;;;;22.27;60.41;99937.94;4422523;32;19984;-86
2022/08/08 01:26:55;;;;;;;;;;;;;;;22.16;60.40;99939.72;4440560;32;19989;-86
2022/08/08 01:29:33;;;;;;;;;;;;;;;22.02;60.40;99938.94;4440412;32;20017;-86
2022/08/08 01:32:21;;;;;;;;;;;;;;;22.30;60.41;99945.66;4440331;32;20029;-87
2022/08/08 01:34:59;;;;;;;;;;;;;;;22.33;60.41;99929.50;4440514;32;20003;-85
2022/08/08 01:37:27;;;;;;;;;;;;;;;22.04;60.40;99929.09;4454506;32;20038;-86
2022/08/08 01:40:11;;;;;;;;;;;;;;;22.28;60.41;99929.03;4440211;32;20289;-86
2022/08/08 01:42:36;;;;;;;;;;;;;;;22.44;60.42;99922.50;4454496;32;19989;-86
2022/08/08 01:45:08;;;;;;;;;;;;;;;22.25;60.41;99926.59;4440022;32;19977;-86
2022/08/08 01:47:40;;;;;;;;;;;;;;;22.28;60.41;99915.75;4439967;32;19993;-86
2022/08/08 01:50:05;;;;;;;;;;;;;;;22.18;60.40;99912.13;4440150;32;20041;-86
2022/08/08 01:52:40;;;;;;;;;;;;;;;22.31;60.42;99912.88;4454169;32;20050;-86
2022/08/08 01:55:27;;;;;;;;;;;;;;;22.31;60.40;99912.88;4427209;32;20048;-87
2022/08/08 01:57:52;;;;;;;;;;;;;;;22.27;60.41;99914.06;4422788;32;20042;-85
2022/08/08 02:00:22;;;;;;;;;;;;;;;22.30;60.40;99913.00;4454289;32;19985;-86
2022/08/08 02:02:50;;;;;;;;;;;;;;;21.96;60.40;99920.00;4427180;32;19977;-86
2022/08/08 02:05:34;;;;;;;;;;;;;;;22.13;60.40;99919.59;4439772;32;19988;-86
2022/08/08 02:08:10;;;;;;;;;;;;;;;22.24;60.40;99913.44;4455704;32;20000;-86
2022/08/08 02:10:36;;;;;;;;;;;;;;;21.69;60.37;99921.12;4442414;32;20043;-85
2022/08/08 02:13:05;;;;;;;;;;;;;;;21.90;60.39;99923.13;4456298;32;20008;-85
2022/08/08 02:15:33;;;;;;;;;;;;;;;21.93;60.38;99928.19;4441927;32;19981;-85
2022/08/08 02:18:12;;;;;;;;;;;;;;;21.74;60.38;99928.72;4429083;32;19993;-87
2022/08/08 02:20:42;;;;;;;;;;;;;;;21.56;60.37;99938.06;4441977;32;19997;-85
2022/08/08 02:23:09;;;;;;;;;;;;;;;21.76;60.38;99940.06;4429000;32;20325;-85
2022/08/08 02:25:34;;;;;;;;;;;;;;;21.84;60.39;99945.63;4441860;32;20362;-85
2022/08/08 02:28:00;;;;;;;;;;;;;;;21.73;60.38;99945.59;4441930;32;20005;-85
2022/08/08 02:30:30;;;;;;;;;;;;;;;21.84;60.38;99948.28;4456056;32;20005;-85
2022/08/08 02:33:05;;;;;;;;;;;;;;;21.95;60.39;99947.47;4441977;32;20383;-85
2022/08/08 02:35:53;;;;;;;;;;;;;;;21.79;60.38;99952.25;4441886;32;20000;-85
2022/08/08 02:38:24;;;;;;;;;;;;;;;21.70;60.37;99953.78;4429357;32;20457;-86
2022/08/08 02:41:09;;;;;;;;;;;;;;;21.52;60.37;99953.31;4441909;32;20011;-86
2022/08/08 02:43:46;;;;;;;;;;;;;;;21.59;60.37;99953.75;4441960;32;19992;-85
2022/08/08 02:46:14;;;;;;;;;;;;;;;21.70;60.38;99959.91;4441680;32;19996;-85
2022/08/08 02:48:58;;;;;;;;;;;;;;;21.88;60.39;99955.03;4456030;32;20000;-85
2022/08/08 02:51:43;;;;;;;;;;;;;;;21.92;60.39;99953.00;4441821;32;20003;-85
2022/08/08 02:54:31;;;;;;;;;;;;;;;21.97;60.40;99943.72;4423723;32;19980;-85
2022/08/08 02:56:57;;;;;;;;;;;;;;;21.87;60.39;99948.06;4426120;32;20030;-85
2022/08/08 02:59:40;;;;;;;;;;;;;;;22.02;60.40;99949.56;4455830;32;19992;-86
2022/08/08 03:02:24;;;;;;;;;;;;;;;22.06;60.39;99952.84;4441967;32;19992;-86
2022/08/08 03:04:56;;;;;;;;;;;;;;;21.85;60.39;99962.37;4455516;32;20037;-86
2022/08/08 03:07:32;;;;;;;;;;;;;;;21.81;60.38;99968.88;4441730;32;20351;-85
2022/08/08 03:10:21;;;;;;;;;;;;;;;21.88;60.39;99964.81;4455935;32;19999;-86
2022/08/08 03:12:56;;;;;;;;;;;;;;;21.88;60.39;99962.16;4441368;32;20263;-87
2022/08/08 03:15:29;;;;;;;;;;;;;;;22.21;60.40;99956.09;4441640;32;20001;-86
2022/08/08 03:18:08;;;;;;;;;;;;;;;22.28;60.41;99963.50;4428406;32;19996;-87
2022/08/08 03:20:51;;;;;;;;;;;;;;;22.21;60.40;99970.22;4441417;32;20350;-86
2022/08/08 03:23:16;;;;;;;;;;;;;;;22.23;60.40;99970.94;4441505;32;20007;-87
2022/08/08 03:25:42;;;;;;;;;;;;;;;22.24;60.41;99962.03;4441234;32;20302;-86
2022/08/08 03:28:28;;;;;;;;;;;;;;;22.22;60.40;99961.28;4441514;32;19977;-86
2022/08/08 03:30:53;;;;;;;;;;;;;;;22.33;60.41;99957.81;4455071;32;20368;-86
2022/08/08 03:33:18;;;;;;;;;;;;;;;22.29;60.41;99962.53;4441368;32;19981;-87
2022/08/08 03:35:47;;;;;;;;;;;;;;;22.10;60.40;99959.59;4441331;32;19992;-87
2022/08/08 03:38:12;;;;;;;;;;;;;;;22.23;60.40;99964.78;4441410;32;19977;-86
2022/08/08 03:40:38;;;;;;;;;;;;;;;22.06;60.39;99971.41;4428582;32;20323;-87
2022/08/08 03:43:03;;;;;;;;;;;;;;;22.23;60.40;99954.19;4441538;32;20314;-86
2022/08/08 03:45:28;;;;;;;;;;;;;;;22.30;60.40;99955.41;4441235;32;19977;-86
2022/08/08 03:48:06;;;;;;;;;;;;;;;22.47;60.41;99960.22;4441448;32;19980;-85
2022/08/08 03:50:32;;;;;;;;;;;;;;;22.22;60.40;99963.09;4441451;32;20348;-85
2022/08/08 03:53:16;;;;;;;;;;;;;;;22.11;60.40;99973.69;4441287;32;19985;-88
2022/08/08 03:55:43;;;;;;;;;;;;;;;22.34;60.41;99968.31;4428578;32;19977;-86
2022/08/08 03:58:08;;;;;;;;;;;;;;;22.13;60.40;99962.00;4441325;32;19965;-87
2022/08/08 04:00:33;;;;;;;;;;;;;;;22.17;60.39;99965.25;4455508;32;20078;-86
2022/08/08 04:02:59;;;;;;;;;;;;;;;22.14;60.39;99965.50;4440656;32;30429;-85
2022/08/08 04:05:28;;;;;;;;;;;;;;;22.16;60.41;99972.38;4441532;32;19977;-85
2022/08/08 04:07:53;;;;;;;;;;;;;;;22.15;60.40;99972.50;4456206;32;19973;-86
2022/08/08 04:10:19;;;;;;;;;;;;;;;22.17;60.41;99962.63;4456995;32;19992;-87
2022/08/08 04:12:44;;;;;;;;;;;;;;;22.60;60.43;99960.12;4436779;32;19984;-87
2022/08/08 04:15:09;;;;;;;;;;;;;;;22.47;60.41;99975.31;4456914;32;19995;-87
2022/08/08 04:17:35;;;;;;;;;;;;;;;22.25;60.41;99977.00;4455444;32;19981;-84
2022/08/08 04:20:00;;;;;;;;;;;;;;;22.13;60.40;99977.91;4443389;32;30024;-86
2022/08/08 04:22:27;;;;;;;;;;;;;;;21.91;60.38;99978.66;4442022;32;19985;-86
2022/08/08 04:24:52;;;;;;;;;;;;;;;21.95;60.39;99987.22;4428856;32;20286;-86
2022/08/08 04:27:18;;;;;;;;;;;;;;;22.08;60.39;99985.37;4441319;32;20055;-86
2022/08/08 04:29:43;;;;;;;;;;;;;;;22.08;60.39;99984.53;4440878;32;19985;-86
2022/08/08 04:32:09;;;;;;;;;;;;;;;22.05;60.39;99994.41;4439776;32;30967;-85
2022/08/08 04:34:34;;;;;;;;;;;;;;;22.26;60.41;99994.59;4441185;32;20034;-85
2022/08/08 04:36:59;;;;;;;;;;;;;;;22.47;60.41;99991.22;4427921;32;20392;-86
2022/08/08 04:39:24;;;;;;;;;;;;;;;22.71;60.42;99988.47;4441095;32;20008;-85
2022/08/08 04:41:49;;;;;;;;;;;;;;;22.73;60.43;99991.88;4428205;32;19997;-85
2022/08/08 04:44:15;;;;;;;;;;;;;;;22.82;60.44;99981.41;4439961;32;37783;-84
2022/08/08 04:46:40;;;;;;;;;;;;;;;23.13;60.45;99984.25;4427933;32;19973;-84
2022/08/08 04:49:06;;;;;;;;;;;;;;;23.23;60.45;99985.22;4454383;32;29408;-85
2022/08/08 04:51:31;;;;;;;;;;;;;;;23.33;60.46;99991.47;4440207;32;30195;-84
2022/08/08 04:53:56;;;;;;;;;;;;;;;23.46;60.47;99992.16;4455022;32;19981;-85
2022/08/08 04:56:21;;;;;;;;;;;;;;;23.76;60.48;99998.63;4454219;32;30223;-85
2022/08/08 04:58:47;;;;;;;;;;;;;;;23.84;60.48;99998.81;4427115;32;32732;-85
2022/08/08 05:01:12;;;;;;;;;;;;;;;23.97;60.50;99990.66;4440141;32;27249;-84
2022/08/08 05:03:37;;;;;;;;;;;;;;;23.93;60.49;99989.25;4427165;32;34490;-85
2022/08/08 05:06:02;;;;;;;;;;;;;;;24.00;60.49;100001.88;4454408;32;19970;-84
2022/08/08 05:08:28;;;;;;;;;;;;;;;23.87;60.48;100004.72;4440825;32;20350;-84
2022/08/08 05:10:53;;;;;;;;;;;;;;;23.98;60.49;99998.50;4454875;32;19984;-84
2022/08/08 05:13:20;;;;;;;;;;;;;;;24.09;60.49;99994.94;4439586;32;31678;-83
2022/08/08 05:15:45;;;;;;;;;;;;;;;23.94;60.49;99994.44;4439960;32;19977;-85
2022/08/08 05:18:10;;;;;;;;;;;;;;;23.93;60.49;99992.75;4440147;32;19989;-86
2022/08/08 05:20:35;;;;;;;;;;;;;;;23.99;60.49;99992.22;4440240;32;19993;-83
2022/08/08 05:23:01;;;;;;;;;;;;;;;23.98;60.49;99993.19;4454292;32;19977;-85
2022/08/08 05:25:26;;;;;;;;;;;;;;;23.98;60.49;100005.66;4426727;32;34136;-85
2022/08/08 05:27:52;;;;;;;;;;;;;;;23.76;60.48;100010.09;4439699;32;33860;-86
2022/08/08 05:30:17;;;;;;;;;;;;;;;23.66;60.48;100010.94;4454643;32;19977;-85
2022/08/08 05:32:42;;;;;;;;;;;;;;;23.64;60.47;100013.75;4427589;32;20321;-85
2022/08/08 05:35:08;;;;;;;;;;;;;;;23.71;60.47;100006.13;4426848;32;26989;-84
2022/08/08 05:37:33;;;;;;;;;;;;;;;23.78;60.48;100012.63;4440408;32;19985;-85
2022/08/08 05:40:00;;;;;;;;;;;;;;;23.72;60.47;100010.47;4440328;32;19985;-84
2022/08/08 05:42:33;;;;;;;;;;;;;;;23.74;60.49;100013.84;4441191;32;20575;-84
2022/08/08 05:44:58;;;;;;;;;;;;;;;23.88;60.48;100013.53;4442086;32;19985;-84
2022/08/08 05:47:24;;;;;;;;;;;;;;;23.94;60.49;100004.22;4441610;32;27117;-84
2022/08/08 05:49:49;;;;;;;;;;;;;;;24.03;60.49;100003.44;4455992;32;20340;-84
2022/08/08 05:52:15;;;;;;;;;;;;;;;24.11;60.49;100007.13;4455560;32;20687;-84
2022/08/08 05:54:40;;;;;;;;;;;;;;;24.19;60.50;100001.19;4441837;32;19969;-84
2022/08/08 05:57:23;;;;;;;;;;;;;;;24.30;60.51;100008.28;4441860;32;19985;-84
2022/08/08 05:59:49;;;;;;;;;;;;;;;24.24;60.50;100008.78;4441836;32;19993;-84
2022/08/08 06:05:04;;;;;;;;;;;;;;;24.47;60.52;99994.37;4443949;32;20363;-84
2022/08/08 06:07:30;;;;;;;;;;;;;;;24.57;60.52;99989.94;4441751;32;19997;-84
2022/08/08 06:09:56;;;;;;;;;;;;;;;24.60;60.53;99989.69;4441519;32;20352;-84
2022/08/08 06:12:21;;;;;;;;;;;;;;;24.56;60.52;99992.75;4428490;32;32229;-85
2022/08/08 06:14:46;;;;;;;;;;;;;;;24.58;60.52;99996.94;4441272;32;29516;-84
2022/08/08 06:17:11;;;;;;;;;;;;;;;24.84;60.54;100005.34;4441232;32;35161;-84
2022/08/08 06:19:37;;;;;;;;;;;;;;;24.98;60.54;100006.81;4428505;32;27802;-84
2022/08/08 06:22:02;;;;;;;;;;;;;;;25.14;60.55;100004.50;4455930;32;19984;-84
2022/08/08 06:24:28;;;;;;;;;;;;;;;25.12;60.54;100011.81;4455139;32;30498;-84
2022/08/08 06:26:56;;;;;;;;;;;;;;;25.33;60.56;100012.56;4456148;32;20011;-84
2022/08/08 06:29:24;;;;;;;;;;;;;;;25.15;60.55;100000.88;4442013;32;19989;-84
2022/08/08 06:31:49;;;;;;;;;;;;;;;25.27;60.55;100005.09;4429073;32;20036;-84
2022/08/08 06:34:15;;;;;;;;;;;;;;;25.42;60.56;99997.56;4441084;32;33440;-83
2022/08/08 06:36:42;;;;;;;;;;;;;;;25.59;60.57;99990.72;4441940;32;19997;-84
2022/08/08 06:39:10;;;;;;;;;;;;;;;25.67;60.57;99998.88;4442033;32;19993;-85
2022/08/08 06:41:49;;;;;;;;;;;;;;;25.46;60.57;100004.28;4441946;32;20003;-84
2022/08/08 06:44:15;;;;;;;;;;;;;;;25.71;60.58;100002.94;4441960;32;20032;-84
2022/08/08 06:46:40;;;;;;;;;;;;;;;25.76;60.58;100013.19;4428830;32;19993;-84
2022/08/08 06:49:05;;;;;;;;;;;;;;;25.61;60.58;100007.41;4455258;32;31866;-84
2022/08/08 06:51:30;;;;;;;;;;;;;;;25.76;60.57;100011.38;4440882;32;33968;-84
2022/08/08 06:53:56;;;;;;;;;;;;;;;25.78;60.59;100008.56;4441148;32;28035;-84
2022/08/08 06:56:22;;;;;;;;;;;;;;;25.79;60.59;100015.56;4441119;32;28605;-84
2022/08/08 06:58:47;;;;;;;;;;;;;;;25.97;60.59;100014.72;4439174;32;20008;-84
2022/08/08 07:01:12;;;;;;;;;;;;;;;25.99;60.59;100014.59;4439025;32;19982;-84
2022/08/08 07:03:47;;;;;;;;;;;;;;;26.21;60.60;100014.28;4439125;32;19970;-84
2022/08/08 07:06:13;;;;;;;;;;;;;;;26.18;60.60;100006.56;4439053;32;20004;-84
2022/08/08 07:08:39;;;;;;;;;;;;;;;26.15;60.60;100006.03;4439219;32;19997;-84
2022/08/08 07:11:05;;;;;;;;;;;;;;;26.14;60.60;100004.34;4438962;32;19985;-84
2022/08/08 07:13:39;;;;;;;;;;;;;;;26.28;60.61;100001.25;4440452;32;19976;-84
2022/08/08 07:16:04;;;;;;;;;;;;;;;26.60;60.62;100001.75;4439091;32;19998;-84
2022/08/08 07:18:29;;;;;;;;;;;;;;;26.64;60.63;99993.44;4440360;32;19991;-84
2022/08/08 07:20:58;;;;;;;;;;;;;;;26.77;60.63;99993.97;4440236;32;19980;-84
2022/08/08 07:23:31;;;;;;;;;;;;;;;26.84;60.63;99993.22;4439099;32;19997;-84
2022/08/08 07:25:57;;;;;;;;;;;;;;;27.03;60.65;100002.16;4426107;32;20003;-84
2022/08/08 07:28:24;;;;;;;;;;;;;;;27.08;60.65;100006.06;4440255;32;19989;-84
2022/08/08 07:30:49;;;;;;;;;;;;;;;27.12;60.65;100010.13;4438992;32;19977;-84
2022/08/08 07:33:15;;;;;;;;;;;;;;;27.15;60.65;100014.31;4438490;32;19988;-84
2022/08/08 07:35:41;;;;;;;;;;;;;;;27.34;60.67;100016.06;4438799;32;20391;-84
2022/08/08 07:38:06;;;;;;;;;;;;;;;27.60;60.68;100019.69;4439077;32;20000;-84
2022/08/08 07:40:32;;;;;;;;;;;;;;;27.52;60.67;100015.09;4425978;32;20007;-84
2022/08/08 07:42:57;;;;;;;;;;;;;;;27.59;60.68;100015.31;4439110;32;19973;-84
2022/08/08 07:45:22;;;;;;;;;;;;;;;27.70;60.68;100015.16;4439611;32;26540;-84
2022/08/08 07:47:48;;;;;;;;;;;;;;;27.86;60.69;100021.62;4439177;32;20383;-84
2022/08/08 07:50:13;;;;;;;;;;;;;;;28.05;60.69;100018.78;4440762;32;20337;-84
2022/08/08 07:52:39;;;;;;;;;;;;;;;28.30;60.72;100015.34;4440293;32;19997;-85
2022/08/08 07:55:08;;;;;;;;;;;;;;;28.31;60.72;100021.53;4449681;32;20019;-84
2022/08/08 07:57:45;;;;;;;;;;;;;;;28.39;60.71;100025.12;4451064;32;19958;-84
2022/08/08 08:00:12;;;;;;;;;;;;;;;28.28;60.71;100028.03;4448161;32;20025;-84
2022/08/08 08:02:38;;;;;;;;;;;;;;;28.30;60.72;100031.41;4440141;32;19992;-84
2022/08/08 08:05:04;;;;;;;;;;;;;;;28.52;60.72;100024.69;4438137;32;19989;-84
2022/08/08 08:07:33;;;;;;;;;;;;;;;28.78;60.74;100024.69;4426028;32;20049;-84
2022/08/08 08:09:59;;;;;;;;;;;;;;;28.90;60.74;100023.44;4426237;32;19992;-84
2022/08/08 08:12:24;;;;;;;;;;;;;;;29.21;60.76;100020.22;4438568;32;19973;-84
2022/08/08 08:14:50;;;;;;;;;;;;;;;29.48;60.78;100025.34;4438652;32;20005;-84
2022/08/08 08:17:16;;;;;;;;;;;;;;;29.68;60.78;100020.53;4439912;32;19979;-84
2022/08/08 08:19:41;;;;;;;;;;;;;;;29.80;60.79;100021.88;4425916;32;19988;-84
2022/08/08 08:22:07;;;;;;;;;;;;;;;29.76;60.79;100022.38;4437915;32;30827;-84
2022/08/08 08:24:32;;;;;;;;;;;;;;;29.77;60.79;100024.06;4439038;32;30227;-84
2022/08/08 08:29:41;;;;;;;;;;;;;;;29.72;60.79;100024.56;4438720;32;19992;-85
2022/08/08 08:32:06;;;;;;;;;;;;;;;29.77;60.79;100029.44;4438325;32;19977;-85
2022/08/08 08:34:31;;;;;;;;;;;;;;;29.86;60.79;100031.13;4438535;32;20344;-84
2022/08/08 08:36:57;;;;;;;;;;;;;;;30.18;60.80;100031.16;4439269;32;25948;-85
2022/08/08 08:39:22;;;;;;;;;;;;;;;30.61;60.84;100028.31;4439074;32;29862;-84
2022/08/08 08:41:47;;;;;;;;;;;;;;;30.95;60.85;100028.03;4425656;32;19970;-84
2022/08/08 08:44:13;;;;;;;;;;;;;;;31.19;60.86;100035.19;4437755;32;29621;-84
2022/08/08 08:46:38;;;;;;;;;;;;;;;31.31;60.87;100034.63;4438413;32;20374;-84
2022/08/08 08:49:03;;;;;;;;;;;;;;;31.36;60.86;100047.56;4437987;32;20107;-84
2022/08/08 08:51:29;;;;;;;;;;;;;;;31.36;60.88;100040.31;4438419;32;19969;-84
2022/08/08 08:53:57;;;;;;;;;;;;;;;31.36;60.87;100039.47;4438343;32;19989;-84
2022/08/08 08:56:23;;;;;;;;;;;;;;;31.39;60.86;100039.12;4439650;32;19977;-84
2022/08/08 08:58:49;;;;;;;;;;;;;;;31.32;60.87;100036.31;4438163;32;19992;-84
2022/08/08 09:01:15;;;;;;;;;;;;;;;31.42;60.87;100036.06;4438249;32;19973;-83
2022/08/08 09:03:41;;;;;;;;;;;;;;;31.29;60.86;100036.66;4438353;32;20004;-84
2022/08/08 09:06:07;;;;;;;;;;;;;;;31.13;60.85;100032.16;4438153;32;19977;-84
2022/08/08 09:08:32;;;;;;;;;;;;;;;31.10;60.86;100043.25;4438134;32;19986;-84
2022/08/08 09:10:59;;;;;;;;;;;;;;;31.10;60.86;100045.13;4437420;32;36142;-84
2022/08/08 09:13:24;;;;;;;;;;;;;;;31.22;60.86;100043.75;4425354;32;20311;-84
2022/08/08 09:15:49;;;;;;;;;;;;;;;31.01;60.86;100041.63;4437033;32;31836;-84
2022/08/08 09:18:17;;;;;;;;;;;;;;;31.13;60.86;100047.44;4437195;32;19992;-84
2022/08/08 09:20:43;;;;;;;;;;;;;;;30.96;60.84;100053.91;4439340;32;20302;-84
2022/08/08 09:23:09;;;;;;;;;;;;;;;30.84;60.85;100053.44;4425203;32;20016;-84
2022/08/08 09:25:34;;;;;;;;;;;;;;;30.60;60.84;100066.91;4437908;32;19989;-84
2022/08/08 09:27:59;;;;;;;;;;;;;;;30.41;60.83;100060.87;4437936;32;19988;-84
2022/08/08 09:30:25;;;;;;;;;;;;;;;30.14;60.81;100061.22;4437896;32;20262;-84
2022/08/08 09:32:51;;;;;;;;;;;;;;;29.57;60.79;100050.34;4439115;32;19985;-84
2022/08/08 09:35:19;;;;;;;;;;;;;;;29.45;60.78;100046.31;4439073;32;19986;-84
2022/08/08 09:37:46;;;;;;;;;;;;;;;29.55;60.79;100050.50;4437950;32;20029;-84
2022/08/08 09:40:15;;;;;;;;;;;;;;;29.51;60.78;100051.00;4437768;32;19974;-84
2022/08/08 09:42:41;;;;;;;;;;;;;;;29.44;60.78;100053.47;4437933;32;19989;-84
2022/08/08 09:45:08;;;;;;;;;;;;;;;29.54;60.78;100043.47;4438977;32;19982;-84
2022/08/08 09:47:34;;;;;;;;;;;;;;;29.70;60.79;100039.16;4438975;32;19977;-84
2022/08/08 09:49:59;;;;;;;;;;;;;;;29.78;60.79;100039.16;4424955;32;20016;-83
2022/08/08 09:52:28;;;;;;;;;;;;;;;29.67;60.79;100039.50;4437545;32;20134;-84
2022/08/08 09:54:53;;;;;;;;;;;;;;;29.71;60.79;100030.09;4424590;32;20042;-83
2022/08/08 09:57:24;;;;;;;;;;;;;;;29.71;60.80;100030.94;4423770;32;37476;-83
2022/08/08 09:59:50;;;;;;;;;;;;;;;29.63;60.79;100029.09;4450732;32;19994;-84
2022/08/08 10:02:20;;;;;;;;;;;;;;;29.59;60.79;100034.97;4427250;32;19989;-83
2022/08/08 10:04:45;;;;;;;;;;;;;;;29.56;60.79;100036.09;4454071;32;20442;-83
2022/08/08 10:07:11;;;;;;;;;;;;;;;29.60;60.78;100031.28;4440046;32;19973;-84
2022/08/08 10:09:37;;;;;;;;;;;;;;;29.58;60.79;100034.13;4439867;32;20018;-83
2022/08/08 10:12:02;;;;;;;;;;;;;;;29.67;60.79;100031.44;4454066;32;20055;-84
2022/08/08 10:14:31;;;;;;;;;;;;;;;29.76;60.80;100036.63;4453999;32;20058;-84
2022/08/08 10:16:56;;;;;;;;;;;;;;;29.80;60.80;100031.78;4439910;32;20041;-84
2022/08/08 10:19:22;;;;;;;;;;;;;;;29.88;60.80;100040.69;4453130;32;32247;-84
2022/08/08 10:21:49;;;;;;;;;;;;;;;29.69;60.79;100045.53;4439640;32;20001;-84
2022/08/08 10:24:14;;;;;;;;;;;;;;;29.74;60.79;100048.56;4427005;32;20007;-84
2022/08/08 10:26:39;;;;;;;;;;;;;;;29.80;60.80;100045.19;4439310;32;19977;-83
2022/08/08 10:29:05;;;;;;;;;;;;;;;29.80;60.80;100037.97;4441117;32;19978;-84
2022/08/08 10:34:15;;;;;;;;;;;;;;;29.79;60.79;100035.47;4444022;32;20030;-84
2022/08/08 10:36:41;;;;;;;;;;;;;;;29.69;60.79;100037.47;4441757;32;19984;-83
2022/08/08 10:39:07;;;;;;;;;;;;;;;29.52;60.79;100029.38;4441835;32;19978;-84
2022/08/08 10:41:32;;;;;;;;;;;;;;;29.37;60.77;100025.66;4441981;32;20034;-84
2022/08/08 10:43:58;;;;;;;;;;;;;;;29.20;60.76;100021.22;4455227;32;35288;-84
2022/08/08 10:46:26;;;;;;;;;;;;;;;29.10;60.76;100021.34;4441431;32;20313;-83
2022/08/08 10:48:52;;;;;;;;;;;;;;;28.90;60.74;100020.78;4442259;32;19973;-84
2022/08/08 10:51:18;;;;;;;;;;;;;;;28.60;60.73;100032.78;4441910;32;19985;-84
2022/08/08 10:53:45;;;;;;;;;;;;;;;28.45;60.73;100041.56;4456003;32;19988;-84
2022/08/08 10:56:11;;;;;;;;;;;;;;;28.21;60.72;100051.06;4428913;32;20045;-84
2022/08/08 10:58:36;;;;;;;;;;;;;;;28.22;60.72;100058.09;4454847;32;37296;-84
2022/08/08 11:01:06;;;;;;;;;;;;;;;27.76;60.69;100057.34;4441301;32;21360;-84
2022/08/08 11:03:39;;;;;;;;;;;;;;;27.67;60.69;100060.91;4441815;32;20004;-84
2022/08/08 11:06:04;;;;;;;;;;;;;;;27.81;60.70;100064.91;4455729;32;19969;-85
2022/08/08 11:08:30;;;;;;;;;;;;;;;28.14;60.71;100056.16;4441550;32;20022;-84
2022/08/08 11:11:02;;;;;;;;;;;;;;;28.09;60.71;100049.59;4455954;32;19981;-84
2022/08/08 11:13:27;;;;;;;;;;;;;;;28.17;60.71;100056.88;4441824;32;20042;-84
2022/08/08 11:15:53;;;;;;;;;;;;;;;28.17;60.72;100051.53;4455721;32;20033;-84
2022/08/08 11:18:19;;;;;;;;;;;;;;;27.89;60.69;100050.75;4455611;32;19974;-84
2022/08/08 11:20:44;;;;;;;;;;;;;;;27.62;60.68;100051.63;4441509;32;19994;-84
2022/08/08 11:23:09;;;;;;;;;;;;;;;27.59;60.69;100042.06;4441204;32;20368;-84
2022/08/08 11:25:34;;;;;;;;;;;;;;;27.75;60.70;100042.28;4440902;32;28918;-83
2022/08/08 11:28:00;;;;;;;;;;;;;;;27.85;60.70;100038.69;4441611;32;19973;-84
2022/08/08 11:30:29;;;;;;;;;;;;;;;28.09;60.71;100036.22;4441656;32;20326;-84
2022/08/08 11:32:55;;;;;;;;;;;;;;;28.16;60.71;100044.50;4441727;32;19997;-84
2022/08/08 11:35:21;;;;;;;;;;;;;;;28.23;60.72;100030.31;4441556;32;20401;-84
2022/08/08 11:37:46;;;;;;;;;;;;;;;28.40;60.72;100034.84;4441882;32;20018;-83
2022/08/08 11:40:11;;;;;;;;;;;;;;;28.47;60.73;100039.56;4454503;32;32706;-84
2022/08/08 11:42:37;;;;;;;;;;;;;;;28.48;60.73;100036.72;4442237;32;20012;-85
2022/08/08 11:45:02;;;;;;;;;;;;;;;28.09;60.71;100047.75;4445309;32;20027;-85
2022/08/08 11:47:28;;;;;;;;;;;;;;;28.05;60.71;100056.25;4452570;32;20006;-84
2022/08/08 11:49:53;;;;;;;;;;;;;;;27.36;60.67;100062.19;4465405;32;19985;-84
2022/08/08 11:52:19;;;;;;;;;;;;;;;26.99;60.65;100055.06;4447950;32;19989;-84
2022/08/08 11:54:44;;;;;;;;;;;;;;;26.78;60.63;100057.91;4441510;32;20029;-84
2022/08/08 11:57:19;;;;;;;;;;;;;;;26.50;60.63;100075.69;4455594;32;20026;-83
2022/08/08 11:59:46;;;;;;;;;;;;;;;25.94;60.61;100070.19;4428395;32;20398;-84
2022/08/08 12:02:12;;;;;;;;;;;;;;;25.69;60.59;100075.06;4441583;32;20042;-84
2022/08/08 12:04:37;;;;;;;;;;;;;;;25.69;60.59;100072.41;4428334;32;19973;-83
2022/08/08 12:07:03;;;;;;;;;;;;;;;25.60;60.58;100083.03;4441422;32;20357;-84
2022/08/08 12:09:28;;;;;;;;;;;;;;;25.49;60.58;100083.97;4441422;32;20348;-83
2022/08/08 12:11:54;;;;;;;;;;;;;;;25.39;60.57;100075.13;4428429;32;19985;-84
2022/08/08 12:14:22;;;;;;;;;;;;;;;25.81;60.59;100078.47;4427562;32;32989;-84
2022/08/08 12:16:48;;;;;;;;;;;;;;;25.90;60.59;100080.31;4441356;32;19985;-85
2022/08/08 12:19:13;;;;;;;;;;;;;;;26.06;60.60;100086.91;4455380;32;19973;-84
2022/08/08 12:21:39;;;;;;;;;;;;;;;26.01;60.60;100079.31;4441214;32;19984;-84
2022/08/08 12:24:05;;;;;;;;;;;;;;;26.15;60.61;100070.91;4428358;32;19977;-84
2022/08/08 12:26:34;;;;;;;;;;;;;;;26.01;60.61;100077.47;4455268;32;19979;-85
2022/08/08 12:28:59;;;;;;;;;;;;;;;25.58;60.57;100071.66;4455426;32;19985;-84
2022/08/08 12:31:29;;;;;;;;;;;;;;;25.84;60.58;100066.69;4454967;32;19981;-84
2022/08/08 12:33:54;;;;;;;;;;;;;;;25.82;60.59;100072.16;4455301;32;19996;-85
2022/08/08 12:36:19;;;;;;;;;;;;;;;25.66;60.58;100074.47;4441014;32;19974;-84
2022/08/08 12:38:50;;;;;;;;;;;;;;;26.04;60.60;100080.87;4427605;32;36137;-84
2022/08/08 12:41:15;;;;;;;;;;;;;;;26.24;60.62;100074.53;4441529;32;19993;-84
2022/08/08 12:43:40;;;;;;;;;;;;;;;26.32;60.62;100088.03;4428301;32;19977;-84
2022/08/08 12:46:12;;;;;;;;;;;;;;;26.31;60.62;100087.19;4441101;32;19973;-84
2022/08/08 12:48:37;;;;;;;;;;;;;;;26.45;60.62;100087.75;4441245;32;20130;-85
2022/08/08 12:51:02;;;;;;;;;;;;;;;26.23;60.60;100100.38;4454386;32;30016;-85
2022/08/08 12:53:32;;;;;;;;;;;;;;;26.29;60.61;100096.34;4454629;32;27093;-84
2022/08/08 12:55:58;;;;;;;;;;;;;;;26.34;60.61;100096.78;4441285;32;19980;-85
2022/08/08 12:58:23;;;;;;;;;;;;;;;26.35;60.62;100101.13;4438093;32;20001;-85